Verona, Wisconsin
Current Conditions -  °F | °C
As of 1:55 PM on Sunday 23 Nov 2014 (Local Time) from KC29 Reporting Station
Overcast Overcast  
Wind Chill: 49°   Ceiling: 500
Heat Index: 49°   Visibility: 5mi
Dew Point: 48°   Wind: 3mph
Humidity: 97%   Direction: 160°SSE
Pressure: 29.47"   Gusts: NA
Location:  42.99°N, 89.53°W
Report Text: KC29 231955Z AUTO 16003KT 5SM OVC005 10/09 A2947 RMK AO1 P0005 T00950090
Loading
Personal Weather Stations






























Interactive Weather Map New forecast layout! Learn more

10-Day Weather Forecast

Advertisements
Track Severe Weather on mobile